Time;durP1;ratioP1;P1;durP2;ratioP2;P2;SDS_P1;SDS_P2;PMS_P1;PMS_P2;Temp;Humidity;BMP_temperature;BMP_pressure;BME280_temperature;BME280_humidity;BME280_pressure;Samples;Min_cycle;Max_cycle;Signal;HPM_P1;HPM_P2
2023/02/17 00:00:15;;;;;;;19.70;12.20;;;;;;;0.12;100.00;99552.75;110299;1270;22611;-70
2023/02/17 00:02:44;;;;;;;21.60;12.40;;;;;;;0.15;100.00;99547.96;110337;1274;22222;-69
2023/02/17 00:05:12;;;;;;;19.80;12.40;;;;;;;0.15;100.00;99553.15;110174;1267;22772;-70
2023/02/17 00:07:41;;;;;;;22.40;12.10;;;;;;;0.12;100.00;99552.21;110053;1267;22436;-70
2023/02/17 00:10:10;;;;;;;22.10;12.90;;;;;;;0.15;100.00;99550.23;110316;1270;22236;-69
2023/02/17 00:12:38;;;;;;;19.60;12.20;;;;;;;0.21;100.00;99548.73;110319;1270;22337;-70
2023/02/17 00:15:07;;;;;;;22.00;12.80;;;;;;;0.22;100.00;99548.98;110351;1269;23274;-70
2023/02/17 00:17:36;;;;;;;20.20;12.50;;;;;;;0.17;100.00;99544.66;110332;1275;22404;-69
2023/02/17 00:20:05;;;;;;;23.80;13.30;;;;;;;0.18;100.00;99544.30;110173;1270;22369;-70
2023/02/17 00:22:34;;;;;;;24.80;13.20;;;;;;;0.23;100.00;99545.27;110237;1269;22336;-69
2023/02/17 00:25:03;;;;;;;21.60;12.20;;;;;;;0.24;100.00;99549.39;110187;1270;22322;-71
2023/02/17 00:27:32;;;;;;;20.90;12.30;;;;;;;0.18;100.00;99549.98;110298;1270;22989;-69
2023/02/17 00:30:00;;;;;;;20.90;12.80;;;;;;;0.12;100.00;99547.11;110308;1271;23068;-70
2023/02/17 00:32:29;;;;;;;24.20;13.80;;;;;;;0.07;100.00;99544.73;110222;1270;22460;-70
2023/02/17 00:34:57;;;;;;;21.70;12.40;;;;;;;0.08;100.00;99542.55;110313;1272;22347;-71
2023/02/17 00:37:26;;;;;;;22.30;12.90;;;;;;;0.10;100.00;99539.64;110401;1269;22345;-71
2023/02/17 00:39:55;;;;;;;20.60;12.50;;;;;;;0.11;100.00;99537.44;110441;1267;22275;-70
2023/02/17 00:42:24;;;;;;;23.00;13.20;;;;;;;0.06;100.00;99535.84;107980;1270;23015;-71
2023/02/17 00:44:52;;;;;;;22.10;13.00;;;;;;;0.01;100.00;99534.36;107409;1275;23566;-70
2023/02/17 00:47:20;;;;;;;25.70;12.90;;;;;;;-0.03;100.00;99536.96;107589;1275;23332;-70
2023/02/17 00:49:49;;;;;;;20.60;12.70;;;;;;;-0.01;100.00;99535.48;108152;1273;22530;-70
2023/02/17 00:52:17;;;;;;;21.00;12.80;;;;;;;0.03;100.00;99530.20;107818;1275;23907;-70
2023/02/17 00:54:46;;;;;;;20.20;12.50;;;;;;;0.06;100.00;99526.41;107600;1274;25380;-70
2023/02/17 00:57:14;;;;;;;23.80;13.30;;;;;;;0.06;100.00;99525.14;107790;1275;27495;-70
2023/02/17 00:59:43;;;;;;;21.40;13.60;;;;;;;0.02;100.00;99520.98;107717;1275;26496;-70
2023/02/17 01:02:11;;;;;;;21.70;13.60;;;;;;;-0.03;100.00;99518.80;107625;1273;22967;-70
2023/02/17 01:04:40;;;;;;;21.30;13.10;;;;;;;-0.06;100.00;99521.02;107524;1275;223710;-70
2023/02/17 01:08:12;;;;;;;22.10;14.10;;;;;;;-0.02;100.00;99513.36;104402;1304;546472;-68
2023/02/17 01:10:44;;;;;;;25.30;14.20;;;;;;;-0.01;100.00;99520.08;106753;1281;22565;-70
2023/02/17 01:13:14;;;;;;;23.80;14.20;;;;;;;0.02;100.00;99517.23;106755;1283;22546;-69
2023/02/17 01:15:46;;;;;;;23.00;14.50;;;;;;;-0.01;100.00;99511.02;107365;1282;22553;-69
2023/02/17 01:18:15;;;;;;;26.00;15.60;;;;;;;-0.05;100.00;99507.45;106495;1282;23708;-70
2023/02/17 01:20:44;;;;;;;26.40;15.60;;;;;;;-0.07;100.00;99506.82;106550;1283;188388;-70
2023/02/17 01:23:18;;;;;;;26.90;16.30;;;;;;;-0.07;100.00;99510.05;106792;1279;22658;-70
2023/02/17 01:25:46;;;;;;;28.20;17.30;;;;;;;-0.00;100.00;99510.02;106907;1281;22555;-70
2023/02/17 01:28:18;;;;;;;27.00;16.70;;;;;;;0.10;100.00;99514.20;106968;1280;22830;-69
2023/02/17 01:30:47;;;;;;;30.30;17.10;;;;;;;0.17;100.00;99509.79;106961;1279;22557;-70
2023/02/17 01:33:15;;;;;;;27.40;16.80;;;;;;;0.27;100.00;99513.67;106984;1282;23492;-70
2023/02/17 01:35:45;;;;;;;30.70;17.30;;;;;;;0.29;100.00;99506.20;107014;1280;23285;-70
2023/02/17 01:38:13;;;;;;;29.10;18.60;;;;;;;0.31;100.00;99510.35;106975;1279;22756;-70
2023/02/17 01:40:46;;;;;;;26.80;17.00;;;;;;;0.34;100.00;99516.77;106850;1279;22704;-70
2023/02/17 01:43:16;;;;;;;34.40;20.30;;;;;;;0.41;100.00;99511.27;106920;1279;22542;-72
2023/02/17 01:46:05;;;;;;;29.70;18.90;;;;;;;0.52;100.00;99509.27;107038;1282;22535;-73
2023/02/17 01:48:37;;;;;;;31.40;19.70;;;;;;;0.59;100.00;99509.73;107914;1276;22546;-70
2023/02/17 01:51:07;;;;;;;31.70;19.60;;;;;;;0.62;100.00;99512.00;107027;1263;22606;-69
2023/02/17 01:53:38;;;;;;;35.50;21.30;;;;;;;0.62;100.00;99507.80;107069;1277;22541;-70
2023/02/17 01:56:07;;;;;;;31.40;18.90;;;;;;;0.63;100.00;99508.42;107315;1276;22549;-69
2023/02/17 01:58:39;;;;;;;37.90;20.70;;;;;;;0.70;100.00;99508.80;106971;1276;25201;-70
2023/02/17 02:01:07;;;;;;;31.70;20.30;;;;;;;0.77;100.00;99506.38;107454;1276;24205;-69
2023/02/17 02:03:36;;;;;;;34.00;19.60;;;;;;;0.83;100.00;99507.16;106968;1281;23022;-69
2023/02/17 02:06:07;;;;;;;31.50;20.00;;;;;;;0.84;100.00;99505.43;108265;1280;22638;-70
2023/02/17 02:08:47;;;;;;;31.50;20.70;;;;;;;0.83;100.00;99502.38;106652;1283;26497;-70
2023/02/17 02:11:15;;;;;;;34.80;20.70;;;;;;;0.83;100.00;99502.71;106979;1281;22979;-70
2023/02/17 02:13:48;;;;;;;32.50;20.70;;;;;;;0.89;100.00;99508.53;108497;1276;23021;-70
2023/02/17 02:16:51;;;;;;;33.60;20.20;;;;;;;0.93;100.00;99509.45;109739;1276;22398;-70
2023/02/17 02:19:38;;;;;;;34.40;20.90;;;;;;;0.97;100.00;99510.84;109703;1274;22356;-70
2023/02/17 02:22:26;;;;;;;33.00;19.80;;;;;;;0.95;100.00;99514.41;109777;1277;22396;-70
2023/02/17 02:25:12;;;;;;;33.50;21.40;;;;;;;0.92;100.00;99507.48;109767;1275;22449;-70
2023/02/17 02:28:06;;;;;;;34.50;21.60;;;;;;;0.91;100.00;99505.26;109804;1275;23208;-70
2023/02/17 02:31:01;;;;;;;34.90;21.20;;;;;;;0.97;100.00;99506.64;109778;1275;22305;-71
2023/02/17 02:33:49;;;;;;;35.30;20.80;;;;;;;1.01;100.00;99508.17;109770;1276;22364;-70
2023/02/17 02:36:29;;;;;;;33.90;20.90;;;;;;;1.05;100.00;99509.84;109756;1276;22296;-70
2023/02/17 02:39:11;;;;;;;35.50;22.10;;;;;;;1.03;100.00;99511.45;109921;1280;22310;-71
2023/02/17 02:41:43;;;;;;;35.50;22.00;;;;;;;1.02;100.00;99510.14;109717;1281;22331;-71
2023/02/17 02:44:13;;;;;;;37.60;23.20;;;;;;;1.04;100.00;99517.11;109753;1281;23034;-70
2023/02/17 02:46:41;;;;;;;37.90;22.40;;;;;;;1.07;100.00;99521.63;109784;1281;23045;-72
2023/02/17 02:49:10;;;;;;;35.90;23.60;;;;;;;1.14;100.00;99522.82;109885;1281;22209;-70
2023/02/17 02:52:01;;;;;;;37.70;23.00;;;;;;;1.18;100.00;99526.17;109816;1280;22443;-70
2023/02/17 02:54:47;;;;;;;37.20;22.80;;;;;;;1.19;100.00;99529.31;109773;1280;22903;-70
2023/02/17 02:57:21;;;;;;;37.50;23.80;;;;;;;1.14;100.00;99532.83;109783;1276;22444;-69
2023/02/17 03:00:00;;;;;;;40.30;22.60;;;;;;;1.11;100.00;99533.97;109799;1277;22332;-70
2023/02/17 03:02:42;;;;;;;40.50;24.60;;;;;;;1.16;100.00;99535.91;109831;1281;22380;-70
2023/02/17 03:05:15;;;;;;;41.40;25.20;;;;;;;1.22;100.00;99529.73;108969;1281;24358;-69
2023/02/17 03:08:05;;;;;;;43.60;28.60;;;;;;;1.22;100.00;99531.18;106912;1281;24007;-69
2023/02/17 03:10:34;;;;;;;43.80;27.10;;;;;;;1.19;100.00;99530.91;107722;1275;22350;-68
2023/02/17 03:13:03;;;;;;;48.70;29.00;;;;;;;1.18;100.00;99537.47;109807;1275;22978;-71
2023/02/17 03:15:32;;;;;;;42.90;28.40;;;;;;;1.22;100.00;99536.66;107241;1275;22552;-70
2023/02/17 03:18:03;;;;;;;44.80;28.90;;;;;;;1.26;100.00;99536.27;107015;1276;23258;-70
2023/02/17 03:20:34;;;;;;;41.30;27.70;;;;;;;1.23;100.00;99543.18;106979;1278;25325;-70
2023/02/17 03:23:05;;;;;;;47.20;28.50;;;;;;;1.17;100.00;99542.23;106993;1273;22553;-70
2023/02/17 03:25:35;;;;;;;42.50;27.80;;;;;;;1.15;100.00;99545.90;107214;1275;22548;-71
2023/02/17 03:28:04;;;;;;;45.50;26.30;;;;;;;1.19;100.00;99545.84;107020;1279;22538;-70
2023/02/17 03:30:33;;;;;;;42.70;26.60;;;;;;;1.24;100.00;99544.94;107229;1275;23684;-70
2023/02/17 03:33:02;;;;;;;42.40;26.90;;;;;;;1.22;100.00;99539.88;107600;1272;22566;-69
2023/02/17 03:35:31;;;;;;;46.80;27.70;;;;;;;1.19;100.00;99543.41;107553;1267;22974;-69
2023/02/17 03:37:59;;;;;;;45.80;27.80;;;;;;;1.17;100.00;99540.12;107568;1269;22564;-70
2023/02/17 03:40:27;;;;;;;45.40;27.70;;;;;;;1.21;100.00;99541.42;107872;1269;23301;-70
2023/02/17 03:42:56;;;;;;;43.90;27.80;;;;;;;1.27;100.00;99544.59;107691;1267;22533;-70
2023/02/17 03:45:24;;;;;;;40.80;26.60;;;;;;;1.30;100.00;99543.05;107726;1268;23027;-71
2023/02/17 03:47:56;;;;;;;43.00;26.70;;;;;;;1.29;100.00;99540.33;107671;1269;25351;-71
2023/02/17 03:50:25;;;;;;;46.60;28.70;;;;;;;1.28;100.00;99536.59;110256;1270;23176;-70
2023/02/17 03:52:53;;;;;;;45.30;27.90;;;;;;;1.23;100.00;99533.98;110217;1271;22420;-70
2023/02/17 03:55:21;;;;;;;44.20;27.10;;;;;;;1.28;100.00;99541.25;110332;1271;22275;-70
2023/02/17 03:57:49;;;;;;;43.90;27.40;;;;;;;1.33;100.00;99539.93;110297;1271;22373;-70
2023/02/17 04:00:18;;;;;;;44.60;27.80;;;;;;;1.37;100.00;99542.77;110353;1269;22300;-70
2023/02/17 04:02:47;;;;;;;42.50;28.10;;;;;;;1.37;100.00;99540.07;110354;1270;23191;-70
2023/02/17 04:05:15;;;;;;;48.00;32.00;;;;;;;1.36;100.00;99534.30;110332;1271;22377;-69
2023/02/17 04:07:43;;;;;;;46.80;31.50;;;;;;;1.34;100.00;99539.40;110293;1269;22343;-69
2023/02/17 04:10:12;;;;;;;46.70;30.40;;;;;;;1.39;100.00;99538.37;110203;1268;25416;-69
2023/02/17 04:12:41;;;;;;;44.30;29.30;;;;;;;1.43;100.00;99540.36;107630;1268;26116;-69
2023/02/17 04:15:14;;;;;;;50.50;31.10;;;;;;;1.43;100.00;99545.48;107466;1272;22541;-69
2023/02/17 04:17:42;;;;;;;48.20;30.70;;;;;;;1.39;100.00;99547.69;107601;1269;22551;-69
2023/02/17 04:20:11;;;;;;;42.40;27.90;;;;;;;1.37;100.00;99542.43;107682;1269;22585;-69
2023/02/17 04:22:39;;;;;;;44.50;28.20;;;;;;;1.36;100.00;99543.59;107647;1270;23305;-69
2023/02/17 04:25:08;;;;;;;45.50;30.20;;;;;;;1.39;100.00;99542.54;107612;1269;26486;-69
2023/02/17 04:27:37;;;;;;;48.70;29.50;;;;;;;1.43;100.00;99543.48;107668;1269;22689;-69
2023/02/17 04:30:06;;;;;;;48.30;30.60;;;;;;;1.43;100.00;99538.41;107796;1269;22659;-69
2023/02/17 04:32:36;;;;;;;55.20;31.60;;;;;;;1.40;100.00;99540.39;108661;1271;22520;-69
2023/02/17 04:35:04;;;;;;;50.60;32.00;;;;;;;1.38;100.00;99543.15;110349;1270;23246;-69
2023/02/17 04:37:32;;;;;;;48.50;31.10;;;;;;;1.44;100.00;99548.36;108363;1269;22655;-69
2023/02/17 04:40:01;;;;;;;51.70;32.60;;;;;;;1.49;100.00;99548.90;107533;1272;25359;-68
2023/02/17 04:42:29;;;;;;;51.30;32.90;;;;;;;1.49;100.00;99546.33;107710;1274;22760;-69
2023/02/17 04:44:58;;;;;;;51.10;31.00;;;;;;;1.48;100.00;99550.70;110439;1274;23055;-69
2023/02/17 04:47:27;;;;;;;52.60;31.70;;;;;;;1.46;100.00;99551.23;110357;1272;22277;-69
2023/02/17 04:49:55;;;;;;;50.60;31.50;;;;;;;1.47;100.00;99556.42;110443;1272;22267;-69
2023/02/17 04:52:23;;;;;;;49.30;30.90;;;;;;;1.52;100.00;99556.39;110475;1274;22369;-70
2023/02/17 04:54:51;;;;;;;53.60;31.60;;;;;;;1.57;100.00;99558.59;110401;1275;22410;-70
2023/02/17 04:57:19;;;;;;;53.20;32.10;;;;;;;1.58;100.00;99558.78;110414;1274;22224;-70
2023/02/17 04:59:47;;;;;;;54.60;33.20;;;;;;;1.58;100.00;99561.54;110458;1274;22292;-70
2023/02/17 05:02:16;;;;;;;53.30;31.80;;;;;;;1.60;100.00;99562.60;110425;1275;22346;-69
2023/02/17 05:04:44;;;;;;;49.30;31.00;;;;;;;1.65;100.00;99569.39;110435;1275;22311;-70
2023/02/17 05:07:13;;;;;;;46.70;29.40;;;;;;;1.72;100.00;99567.30;110331;1268;22306;-70
2023/02/17 05:09:45;;;;;;;53.00;31.50;;;;;;;1.70;100.00;99566.61;110375;1269;22315;-71
2023/02/17 05:12:13;;;;;;;57.40;33.50;;;;;;;1.67;100.00;99571.75;110324;1266;23307;-68
2023/02/17 05:14:42;;;;;;;49.50;31.10;;;;;;;1.63;100.00;99575.98;110302;1272;22350;-68
2023/02/17 05:17:12;;;;;;;53.80;31.60;;;;;;;1.62;100.00;99573.85;110245;1267;22365;-69
2023/02/17 05:19:40;;;;;;;54.40;31.50;;;;;;;1.66;100.00;99572.79;110241;1269;22835;-70
2023/02/17 05:22:08;;;;;;;50.00;31.10;;;;;;;1.71;100.00;99572.27;110195;1271;23138;-69
2023/02/17 05:24:37;;;;;;;51.90;31.40;;;;;;;1.77;100.00;99571.72;110244;1267;22504;-68
2023/02/17 05:27:08;;;;;;;49.50;31.60;;;;;;;1.79;100.00;99577.48;110270;1271;22494;-69
2023/02/17 05:29:37;;;;;;;51.90;31.10;;;;;;;1.78;100.00;99581.23;110346;1266;22433;-68
2023/02/17 05:32:05;;;;;;;52.30;31.40;;;;;;;1.76;100.00;99582.14;110228;1273;22254;-70
2023/02/17 05:34:35;;;;;;;52.30;31.70;;;;;;;1.79;100.00;99586.02;110178;1269;22409;-69
2023/02/17 05:37:03;;;;;;;53.00;31.60;;;;;;;1.83;100.00;99590.21;110263;1266;22335;-70
2023/02/17 05:39:31;;;;;;;51.20;31.10;;;;;;;1.84;100.00;99595.52;110351;1268;22489;-70
2023/02/17 05:41:59;;;;;;;52.50;32.10;;;;;;;1.81;100.00;99589.77;110314;1269;23145;-69
2023/02/17 05:44:28;;;;;;;56.60;33.80;;;;;;;1.79;100.00;99602.59;110169;1271;22333;-69
2023/02/17 05:46:56;;;;;;;58.90;33.30;;;;;;;1.79;100.00;99603.30;110365;1269;22169;-70
2023/02/17 05:49:25;;;;;;;56.20;33.10;;;;;;;1.85;100.00;99604.39;110279;1269;22232;-70
2023/02/17 05:51:53;;;;;;;53.40;33.10;;;;;;;1.90;100.00;99605.38;109724;1268;25441;-69
2023/02/17 05:54:21;;;;;;;59.70;34.90;;;;;;;1.97;100.00;99602.69;107705;1269;22561;-69
2023/02/17 05:56:50;;;;;;;58.10;35.00;;;;;;;1.98;100.00;99600.12;107679;1267;25232;-69
2023/02/17 05:59:18;;;;;;;57.50;33.40;;;;;;;1.96;100.00;99601.41;107640;1269;22924;-68
2023/02/17 06:01:46;;;;;;;62.10;36.80;;;;;;;1.91;100.00;99600.58;107665;1268;24325;-68
2023/02/17 06:04:15;;;;;;;57.70;34.10;;;;;;;1.93;100.00;99603.51;108910;1267;25200;-67
2023/02/17 06:06:44;;;;;;;59.20;35.90;;;;;;;2.01;100.00;99604.17;107762;1267;25228;-67
2023/02/17 06:09:12;;;;;;;63.20;36.70;;;;;;;2.03;100.00;99606.27;107610;1268;22962;-68
2023/02/17 06:11:41;;;;;;;63.50;37.30;;;;;;;1.97;100.00;99613.52;107889;1275;25409;-68
2023/02/17 06:14:09;;;;;;;64.20;38.80;;;;;;;1.94;100.00;99614.82;107850;1275;25559;-68
2023/02/17 06:16:41;;;;;;;56.50;34.60;;;;;;;1.95;100.00;99617.31;108529;1275;25453;-68
2023/02/17 06:19:09;;;;;;;59.40;36.60;;;;;;;2.00;100.00;99621.36;107571;1275;22548;-68
2023/02/17 06:21:37;;;;;;;58.10;34.10;;;;;;;2.01;100.00;99617.60;108027;1275;25418;-68
2023/02/17 06:24:06;;;;;;;51.80;30.70;;;;;;;2.04;100.00;99621.88;107615;1275;26284;-68
2023/02/17 06:26:35;;;;;;;56.20;33.10;;;;;;;2.03;100.00;99624.03;107605;1275;25332;-68
2023/02/17 06:29:04;;;;;;;54.80;32.90;;;;;;;1.99;100.00;99625.10;110384;1275;23091;-67
2023/02/17 06:31:33;;;;;;;55.80;33.10;;;;;;;1.94;100.00;99631.08;110463;1275;22225;-68
2023/02/17 06:34:02;;;;;;;59.00;32.60;;;;;;;1.98;100.00;99634.44;110456;1275;22212;-69
2023/02/17 06:36:33;;;;;;;58.90;34.40;;;;;;;2.05;100.00;99635.13;110386;1275;22726;-69
2023/02/17 06:39:02;;;;;;;58.00;33.60;;;;;;;2.06;100.00;99630.70;110431;1259;22193;-69
2023/02/17 06:41:30;;;;;;;54.70;31.50;;;;;;;2.06;100.00;99636.98;110411;1275;22380;-68
2023/02/17 06:43:58;;;;;;;62.30;35.80;;;;;;;2.02;100.00;99637.13;110449;1275;22236;-68
2023/02/17 06:46:26;;;;;;;59.60;33.00;;;;;;;2.08;100.00;99639.57;109564;1275;24892;-68
2023/02/17 06:48:54;;;;;;;56.30;33.30;;;;;;;2.12;100.00;99636.33;107515;1275;24902;-69
2023/02/17 06:51:23;;;;;;;60.30;33.10;;;;;;;2.13;100.00;99638.94;107503;1275;25201;-69
2023/02/17 06:53:51;;;;;;;61.20;34.70;;;;;;;2.14;100.00;99639.67;107481;1269;25036;-68
2023/02/17 06:56:19;;;;;;;59.20;35.10;;;;;;;2.18;100.00;99643.17;107399;1276;22875;-68
2023/02/17 06:58:48;;;;;;;63.90;34.70;;;;;;;2.23;100.00;99646.88;107454;1276;23875;-68
2023/02/17 07:01:18;;;;;;;63.10;36.20;;;;;;;2.20;100.00;99647.85;107417;1275;22545;-68
2023/02/17 07:03:46;;;;;;;64.40;35.50;;;;;;;2.18;100.00;99649.69;107544;1275;25530;-68
2023/02/17 07:06:15;;;;;;;61.90;35.40;;;;;;;2.24;100.00;99649.77;107662;1275;24202;-68
2023/02/17 07:08:44;;;;;;;65.60;36.30;;;;;;;2.27;100.00;99650.09;107523;1275;23273;-68
2023/02/17 07:11:12;;;;;;;64.80;35.90;;;;;;;2.24;100.00;99650.98;107410;1275;22529;-68
2023/02/17 07:13:41;;;;;;;63.60;34.80;;;;;;;2.26;100.00;99654.66;107607;1275;23652;-68
2023/02/17 07:16:11;;;;;;;59.90;35.80;;;;;;;2.31;100.00;99655.56;107542;1275;22852;-68
2023/02/17 07:18:39;;;;;;;63.80;34.90;;;;;;;2.31;100.00;99655.89;107583;1275;22545;-68
2023/02/17 07:21:07;;;;;;;62.30;35.30;;;;;;;2.27;100.00;99657.65;107585;1273;26151;-66
2023/02/17 07:23:36;;;;;;;61.40;34.00;;;;;;;2.26;100.00;99659.61;107609;1273;22555;-67
2023/02/17 07:26:07;;;;;;;60.90;33.90;;;;;;;2.32;100.00;99661.84;110338;1269;22939;-67
2023/02/17 07:28:36;;;;;;;63.50;36.30;;;;;;;2.35;100.00;99658.83;110363;1267;22394;-67
2023/02/17 07:31:08;;;;;;;59.90;33.70;;;;;;;2.33;100.00;99663.27;110416;1274;22241;-67
2023/02/17 07:33:37;;;;;;;61.20;35.00;;;;;;;2.35;100.00;99662.39;110361;1268;22409;-67
2023/02/17 07:36:14;;;;;;;63.10;36.00;;;;;;;2.40;100.00;99665.77;110403;1275;22289;-67
2023/02/17 07:38:42;;;;;;;66.70;36.70;;;;;;;2.42;100.00;99666.99;110406;1276;23030;-67
2023/02/17 07:41:15;;;;;;;61.50;34.60;;;;;;;2.40;100.00;99669.16;110388;1268;22493;-67
2023/02/17 07:43:44;;;;;;;64.10;36.70;;;;;;;2.40;100.00;99671.89;110384;1268;22198;-68
2023/02/17 07:46:12;;;;;;;60.90;34.90;;;;;;;2.44;100.00;99677.16;110410;1268;23800;-67
2023/02/17 07:48:40;;;;;;;65.00;35.80;;;;;;;2.38;100.00;99675.09;110391;1275;22312;-68
2023/02/17 07:51:10;;;;;;;59.40;33.90;;;;;;;2.33;100.00;99676.55;110405;1274;22321;-68
2023/02/17 07:53:39;;;;;;;63.70;35.90;;;;;;;2.33;100.00;99681.13;110441;1275;23179;-68
2023/02/17 07:56:11;;;;;;;61.50;33.80;;;;;;;2.36;100.00;99678.09;110425;1275;22254;-67
2023/02/17 07:58:40;;;;;;;61.10;35.40;;;;;;;2.31;100.00;99683.08;110198;1275;22401;-67
2023/02/17 08:01:10;;;;;;;64.60;35.90;;;;;;;2.30;100.00;99682.94;110356;1259;22299;-67
2023/02/17 08:03:39;;;;;;;63.90;38.30;;;;;;;2.31;100.00;99687.38;110449;1275;22227;-67
2023/02/17 08:06:15;;;;;;;58.60;33.90;;;;;;;2.31;100.00;99681.59;110429;1275;22322;-67
2023/02/17 08:14:19;;;;;;;54.50;32.20;;;;;;;2.29;100.00;99690.38;110432;1275;23516;-67
2023/02/17 08:16:49;;;;;;;55.50;32.40;;;;;;;2.23;100.00;99690.02;110439;1275;22331;-67
2023/02/17 08:19:17;;;;;;;56.50;33.50;;;;;;;2.18;100.00;99685.64;110426;1275;22319;-68
2023/02/17 08:21:45;;;;;;;56.10;32.40;;;;;;;2.25;100.00;99691.48;110373;1275;22646;-66
2023/02/17 08:24:15;;;;;;;63.30;35.40;;;;;;;2.30;100.00;99696.65;110395;1270;22199;-68
2023/02/17 08:26:43;;;;;;;57.10;32.50;;;;;;;2.31;100.00;99697.92;108076;1275;22616;-69
2023/02/17 08:29:11;;;;;;;57.20;33.20;;;;;;;2.40;100.00;99703.76;107474;1275;22862;-67
2023/02/17 08:31:40;;;;;;;58.80;34.50;;;;;;;2.43;100.00;99701.63;107493;1272;22528;-69
2023/02/17 08:34:09;;;;;;;57.20;34.70;;;;;;;2.39;100.00;99707.81;107630;1275;24325;-67
2023/02/17 08:36:38;;;;;;;59.50;34.20;;;;;;;2.34;100.00;99705.05;107639;1275;24385;-68
2023/02/17 08:39:13;;;;;;;55.60;32.40;;;;;;;2.36;100.00;99709.94;107636;1275;25332;-67
2023/02/17 08:41:42;;;;;;;58.80;34.60;;;;;;;2.38;100.00;99707.83;108067;1269;27815;-67
2023/02/17 08:44:13;;;;;;;58.20;34.10;;;;;;;2.35;100.00;99710.04;107348;1269;22520;-69
2023/02/17 08:46:41;;;;;;;54.10;32.20;;;;;;;2.33;100.00;99708.98;107481;1275;26669;-68
2023/02/17 08:49:10;;;;;;;55.50;31.50;;;;;;;2.35;100.00;99712.23;107498;1275;22984;-69
2023/02/17 08:51:38;;;;;;;55.10;32.00;;;;;;;2.38;100.00;99713.68;107447;1275;23297;-68
2023/02/17 08:54:07;;;;;;;55.50;33.60;;;;;;;2.38;100.00;99710.46;107562;1275;24283;-68
2023/02/17 08:56:38;;;;;;;61.60;34.90;;;;;;;2.34;100.00;99708.00;107444;1276;25523;-68
2023/02/17 08:59:08;;;;;;;55.20;33.00;;;;;;;2.34;100.00;99712.36;110400;1276;22968;-69
2023/02/17 09:01:36;;;;;;;55.70;33.60;;;;;;;2.34;100.00;99715.05;110421;1275;22284;-69
2023/02/17 09:04:06;;;;;;;57.50;34.60;;;;;;;2.36;100.00;99721.11;110464;1275;22214;-69
2023/02/17 09:06:57;;;;;;;60.30;35.40;;;;;;;2.37;100.00;99726.58;110423;1275;22393;-69
2023/02/17 09:09:26;;;;;;;56.20;33.60;;;;;;;2.38;100.00;99725.44;110425;1275;22477;-69
2023/02/17 09:11:57;;;;;;;55.40;33.00;;;;;;;2.41;100.00;99731.77;110421;1275;22288;-68
2023/02/17 09:14:26;;;;;;;59.10;33.40;;;;;;;2.43;100.00;99726.05;110464;1275;22239;-70
2023/02/17 09:16:55;;;;;;;50.50;31.60;;;;;;;2.39;100.00;99724.88;110192;1275;22336;-69
2023/02/17 09:19:24;;;;;;;58.00;33.10;;;;;;;2.36;100.00;99731.23;108926;1275;25625;-69
2023/02/17 09:21:52;;;;;;;56.20;33.50;;;;;;;2.42;100.00;99731.23;107600;1275;24184;-69
2023/02/17 09:24:23;;;;;;;57.80;33.20;;;;;;;2.47;100.00;99734.83;107604;1275;23486;-69
2023/02/17 09:26:52;;;;;;;52.20;32.40;;;;;;;2.46;100.00;99735.66;107515;1275;25334;-69
2023/02/17 09:29:21;;;;;;;51.30;31.50;;;;;;;2.46;100.00;99734.50;107646;1275;22606;-69
2023/02/17 09:31:49;;;;;;;50.90;30.90;;;;;;;2.47;100.00;99729.27;107731;1275;22628;-69
2023/02/17 09:34:17;;;;;;;49.50;31.90;;;;;;;2.43;100.00;99731.09;108081;1274;25347;-69
2023/02/17 09:36:46;;;;;;;51.10;29.30;;;;;;;2.40;100.00;99728.14;107608;1274;24304;-69
2023/02/17 09:39:14;;;;;;;47.50;28.90;;;;;;;2.42;100.00;99729.79;108076;1274;26685;-69
2023/02/17 09:41:48;;;;;;;46.00;28.60;;;;;;;2.47;100.00;99732.27;107536;1275;25368;-69
2023/02/17 09:44:34;;;;;;;52.20;31.00;;;;;;;2.48;100.00;99731.41;107421;1275;24445;-69
2023/02/17 09:47:24;;;;;;;47.40;28.80;;;;;;;2.44;100.00;99732.57;107587;1275;26378;-69
2023/02/17 09:49:55;;;;;;;50.00;29.30;;;;;;;2.43;100.00;99726.84;107438;1276;25232;-69
2023/02/17 09:52:43;;;;;;;49.70;28.30;;;;;;;2.47;100.00;99726.15;107622;1276;25339;-69
2023/02/17 09:55:16;;;;;;;46.90;29.00;;;;;;;2.49;100.00;99722.11;107611;1272;22533;-69
2023/02/17 09:58:05;;;;;;;52.90;30.60;;;;;;;2.48;100.00;99724.52;107624;1274;25484;-69
2023/02/17 10:00:43;;;;;;;50.20;29.20;;;;;;;2.45;100.00;99725.98;107482;1272;22523;-69
2023/02/17 10:03:18;;;;;;;47.50;29.00;;;;;;;2.50;100.00;99729.50;107633;1275;26558;-69
2023/02/17 10:05:54;;;;;;;52.30;29.90;;;;;;;2.48;100.00;99726.79;110439;1275;22437;-70
2023/02/17 10:08:26;;;;;;;50.30;30.70;;;;;;;2.46;100.00;99724.29;110430;1270;23040;-69
2023/02/17 10:11:07;;;;;;;55.30;31.10;;;;;;;2.51;100.00;99723.51;110390;1275;22197;-68
2023/02/17 10:13:36;;;;;;;46.60;29.00;;;;;;;2.57;100.00;99720.32;110367;1275;22324;-69
2023/02/17 10:16:08;;;;;;;49.90;29.50;;;;;;;2.65;100.00;99721.08;110236;1275;22531;-68
2023/02/17 10:18:40;;;;;;;52.90;29.80;;;;;;;2.68;100.00;99721.87;110442;1275;22225;-69
2023/02/17 10:21:18;;;;;;;50.90;30.30;;;;;;;2.63;100.00;99723.93;110353;1275;22964;-68
2023/02/17 10:23:46;;;;;;;48.10;28.10;;;;;;;2.59;100.00;99720.30;110364;1275;22935;-68
2023/02/17 10:26:47;;;;;;;48.40;29.50;;;;;;;2.67;100.00;99719.39;110432;1274;22315;-69
2023/02/17 10:29:36;;;;;;;46.10;28.10;;;;;;;2.74;100.00;99717.89;110154;1275;22343;-69
2023/02/17 10:32:16;;;;;;;51.70;29.50;;;;;;;2.63;100.00;99718.33;110144;1275;22284;-69
2023/02/17 10:35:13;;;;;;;50.00;28.50;;;;;;;2.55;100.00;99717.02;110460;1275;22416;-69
2023/02/17 10:37:49;;;;;;;50.60;28.80;;;;;;;2.62;100.00;99719.94;110381;1275;22212;-69
2023/02/17 10:40:25;;;;;;;53.50;31.00;;;;;;;2.63;100.00;99723.06;110441;1275;22975;-68
2023/02/17 10:43:01;;;;;;;48.00;29.40;;;;;;;2.62;100.00;99726.27;110454;1275;22269;-68
2023/02/17 10:45:39;;;;;;;47.50;27.90;;;;;;;2.68;100.00;99724.80;110235;1275;22229;-68
2023/02/17 10:48:11;;;;;;;50.00;29.50;;;;;;;2.70;100.00;99724.20;107527;1273;22540;-67
2023/02/17 10:50:43;;;;;;;53.40;30.60;;;;;;;2.65;100.00;99722.88;109547;1268;23133;-68
2023/02/17 10:53:20;;;;;;;51.70;29.90;;;;;;;2.60;100.00;99723.51;110292;1272;22321;-68
2023/02/17 10:55:57;;;;;;;51.80;30.10;;;;;;;2.59;100.00;99724.02;110356;1269;22478;-68
2023/02/17 10:58:45;;;;;;;56.30;31.00;;;;;;;2.61;100.00;99721.89;110325;1273;22431;-68
2023/02/17 11:01:13;;;;;;;60.60;32.60;;;;;;;2.59;100.00;99720.59;110186;1270;22404;-66
2023/02/17 11:03:42;;;;;;;54.50;30.80;;;;;;;2.63;100.00;99719.02;110394;1274;23340;-67
2023/02/17 11:06:15;;;;;;;58.90;32.20;;;;;;;2.71;100.00;99713.77;110301;1272;22334;-66
2023/02/17 11:08:50;;;;;;;53.20;32.00;;;;;;;2.74;100.00;99712.63;107930;1272;22645;-66
2023/02/17 11:11:29;;;;;;;58.50;33.20;;;;;;;2.76;100.00;99717.36;107563;1273;26691;-68
2023/02/17 11:14:18;;;;;;;58.60;32.00;;;;;;;2.79;100.00;99718.20;107722;1269;24099;-67
2023/02/17 11:16:52;;;;;;;54.60;30.00;;;;;;;2.83;100.00;99720.60;107684;1272;25385;-67
2023/02/17 11:19:28;;;;;;;58.30;32.10;;;;;;;2.78;100.00;99722.43;107810;1273;22552;-67
2023/02/17 11:21:57;;;;;;;58.30;33.20;;;;;;;2.68;100.00;99718.89;107773;1270;22539;-68
2023/02/17 11:24:26;;;;;;;58.00;32.70;;;;;;;2.62;100.00;99719.28;107585;1275;22550;-67
2023/02/17 11:27:03;;;;;;;55.50;31.90;;;;;;;2.66;100.00;99715.76;107721;1270;23551;-67
2023/02/17 11:29:33;;;;;;;64.10;33.10;;;;;;;2.65;100.00;99715.88;107560;1272;24251;-67
2023/02/17 11:32:07;;;;;;;60.90;32.10;;;;;;;2.64;100.00;99719.30;107527;1253;22532;-67
2023/02/17 11:34:37;;;;;;;57.70;30.00;;;;;;;2.66;100.00;99721.72;107594;1275;25220;-67